createdAt,value
2023-04-14T00:01:35.951Z,80.33
2023-04-14T00:04:02.467Z,80.79
2023-04-14T00:06:28.908Z,80.71
2023-04-14T00:08:55.862Z,80.56
2023-04-14T00:11:22.446Z,81.24
2023-04-14T00:13:48.707Z,81.20
2023-04-14T00:16:15.426Z,80.92
2023-04-14T00:18:41.734Z,81.34
2023-04-14T00:21:08.092Z,81.29
2023-04-14T00:23:34.394Z,81.21
2023-04-14T00:26:00.831Z,80.56
2023-04-14T00:28:27.102Z,80.95
2023-04-14T00:30:53.426Z,80.93
2023-04-14T00:33:19.737Z,80.88
2023-04-14T00:35:46.162Z,81.02
2023-04-14T00:38:12.426Z,81.36
2023-04-14T00:40:38.739Z,81.57
2023-04-14T00:43:05.049Z,81.92
2023-04-14T00:45:31.381Z,82.07
2023-04-14T00:47:58.201Z,81.93
2023-04-14T00:50:24.675Z,82.83
2023-04-14T00:52:52.651Z,82.93
2023-04-14T00:55:21.367Z,82.89
2023-04-14T00:57:48.583Z,82.71
2023-04-14T01:00:15.678Z,82.68
2023-04-14T01:02:42.733Z,82.63
2023-04-14T01:05:09.466Z,82.96
2023-04-14T01:07:36.907Z,82.57
2023-04-14T01:10:04.717Z,82.23
2023-04-14T01:12:51.251Z,82.17
2023-04-14T01:15:32.557Z,82.32
2023-04-14T01:18:10.945Z,82.07
2023-04-14T01:20:48.569Z,82.36
2023-04-14T01:23:26.058Z,82.52
2023-04-14T01:26:16.598Z,82.82
2023-04-14T01:29:04.350Z,83.06
2023-04-14T01:31:53.930Z,83.28
2023-04-14T01:34:33.617Z,82.73
2023-04-14T01:37:16.585Z,82.13
2023-04-14T01:39:48.337Z,82.85
2023-04-14T01:42:18.811Z,82.54
2023-04-14T01:44:48.893Z,82.22
2023-04-14T01:47:20.082Z,82.91
2023-04-14T01:49:51.447Z,82.60
2023-04-14T01:52:19.522Z,82.13
2023-04-14T01:54:50.414Z,82.70
2023-04-14T01:57:20.129Z,82.72
2023-04-14T01:59:48.467Z,82.76
2023-04-14T02:02:18.045Z,82.77
2023-04-14T02:04:45.657Z,83.68
2023-04-14T02:07:12.619Z,83.63
2023-04-14T02:09:40.782Z,84.02
2023-04-14T02:12:11.051Z,83.58
2023-04-14T02:14:40.728Z,83.63
2023-04-14T02:17:09.178Z,84.32
2023-04-14T02:19:37.023Z,83.16
2023-04-14T02:22:03.682Z,83.42
2023-04-14T02:24:30.904Z,83.52
2023-04-14T02:27:41.202Z,83.52
2023-04-14T02:30:14.026Z,83.38
2023-04-14T02:32:48.805Z,83.17
2023-04-14T02:35:18.809Z,83.14
2023-04-14T02:37:50.608Z,83.68
2023-04-14T02:40:24.556Z,82.68
2023-04-14T02:42:59.454Z,83.26
2023-04-14T02:45:28.496Z,83.26
2023-04-14T02:47:59.646Z,83.51
2023-04-14T02:50:28.503Z,83.53
2023-04-14T02:52:55.890Z,83.77
2023-04-14T02:55:23.969Z,83.81
2023-04-14T02:57:51.487Z,83.24
2023-04-14T03:00:18.855Z,83.48
2023-04-14T03:02:47.129Z,83.73
2023-04-14T03:05:14.346Z,84.09
2023-04-14T03:07:41.916Z,83.62
2023-04-14T03:10:10.163Z,84.10
2023-04-14T03:12:37.634Z,83.21
2023-04-14T03:15:06.365Z,83.84
2023-04-14T03:17:33.135Z,83.12
2023-04-14T03:20:01.672Z,83.42
2023-04-14T03:22:29.040Z,83.72
2023-04-14T03:24:58.986Z,83.50
2023-04-14T03:27:27.924Z,83.72
2023-04-14T03:29:58.165Z,83.53
2023-04-14T03:32:29.166Z,83.31
2023-04-14T03:34:58.718Z,83.12
2023-04-14T03:37:27.093Z,83.32
2023-04-14T03:39:54.039Z,83.84
2023-04-14T03:42:21.264Z,84.14
2023-04-14T03:44:50.094Z,83.88
2023-04-14T03:47:16.505Z,83.90
2023-04-14T03:49:46.748Z,84.41
2023-04-14T03:52:14.672Z,84.32
2023-04-14T03:54:43.004Z,84.29
2023-04-14T03:57:11.831Z,84.34
2023-04-14T03:59:39.600Z,84.25
2023-04-14T04:02:07.813Z,83.64
2023-04-14T04:04:36.350Z,84.03
2023-04-14T04:07:04.812Z,84.53
2023-04-14T04:09:33.833Z,83.53
2023-04-14T04:12:02.041Z,83.57
2023-04-14T04:14:30.185Z,83.30
2023-04-14T04:17:02.087Z,83.14
2023-04-14T04:19:29.728Z,83.29
2023-04-14T04:21:58.262Z,83.95
2023-04-14T04:24:28.748Z,84.52
2023-04-14T04:26:56.138Z,84.10
2023-04-14T04:29:23.306Z,83.96
2023-04-14T04:31:49.721Z,84.53
2023-04-14T04:34:17.049Z,84.21
2023-04-14T04:36:44.387Z,83.57
2023-04-14T04:39:10.937Z,83.55
2023-04-14T04:41:37.326Z,82.94
2023-04-14T04:44:03.597Z,83.88
2023-04-14T04:46:47.862Z,83.06
2023-04-14T04:49:14.171Z,83.69
2023-04-14T04:51:40.704Z,83.38
2023-04-14T04:54:07.075Z,84.03
2023-04-14T04:56:33.740Z,84.39
2023-04-14T04:59:00.312Z,84.37
2023-04-14T05:01:27.420Z,85.06
2023-04-14T05:03:54.076Z,84.45
2023-04-14T05:06:20.524Z,85.42
2023-04-14T05:08:46.884Z,85.34
2023-04-14T05:11:13.177Z,84.92
2023-04-14T05:13:39.526Z,84.82
2023-04-14T05:16:11.411Z,84.94
2023-04-14T05:18:38.086Z,84.91
2023-04-14T05:21:06.755Z,84.68
2023-04-14T05:23:34.141Z,85.30
2023-04-14T05:26:16.377Z,85.61
2023-04-14T05:28:47.102Z,85.00
2023-04-14T05:31:13.477Z,84.59
2023-04-14T05:33:40.096Z,84.20
2023-04-14T05:36:06.869Z,84.43
2023-04-14T05:38:36.349Z,83.57
2023-04-14T05:41:02.635Z,83.50
2023-04-14T05:43:28.955Z,82.70
2023-04-14T05:45:58.157Z,82.61
2023-04-14T05:48:27.482Z,82.13
2023-04-14T05:50:53.755Z,81.87
2023-04-14T05:53:20.547Z,82.31
2023-04-14T05:55:48.630Z,81.63
2023-04-14T05:58:14.946Z,81.51
2023-04-14T06:00:41.295Z,81.42
2023-04-14T06:03:08.373Z,80.61
2023-04-14T06:05:34.934Z,80.10
2023-04-14T06:08:01.336Z,80.35
2023-04-14T06:10:27.720Z,79.47
2023-04-14T06:12:54.031Z,79.51
2023-04-14T06:15:20.570Z,79.54
2023-04-14T06:17:48.116Z,79.71
2023-04-14T06:20:14.681Z,79.88
2023-04-14T06:22:40.999Z,79.15
2023-04-14T06:25:07.583Z,79.69
2023-04-14T06:27:33.862Z,79.83
2023-04-14T06:30:00.979Z,79.83
2023-04-14T06:32:27.372Z,80.13
2023-04-14T06:34:53.697Z,79.44
2023-04-14T06:37:19.990Z,79.73
2023-04-14T06:39:46.272Z,79.60
2023-04-14T06:42:13.166Z,79.30
2023-04-14T06:44:40.288Z,78.71
2023-04-14T06:47:07.193Z,78.68
2023-04-14T06:49:33.549Z,78.40
2023-04-14T06:51:59.881Z,77.96
2023-04-14T06:54:26.158Z,76.62
2023-04-14T06:56:52.435Z,75.96
2023-04-14T06:59:21.033Z,75.44
2023-04-14T07:01:47.566Z,75.12
2023-04-14T07:04:15.369Z,74.65
2023-04-14T07:06:41.847Z,74.23
2023-04-14T07:09:08.120Z,73.66
2023-04-14T07:11:34.408Z,74.84
2023-04-14T07:14:00.920Z,74.01
2023-04-14T07:16:27.559Z,71.75
2023-04-14T07:18:53.874Z,72.44
2023-04-14T07:21:20.191Z,71.54
2023-04-14T07:23:46.507Z,71.09
2023-04-14T07:26:12.890Z,69.51
2023-04-14T07:28:39.254Z,71.08
2023-04-14T07:31:09.555Z,71.01
2023-04-14T07:33:36.076Z,71.85
2023-04-14T07:36:07.168Z,65.51
2023-04-14T07:38:33.832Z,55.27
2023-04-14T07:41:04.428Z,49.86
2023-04-14T07:43:35.101Z,44.79
2023-04-14T07:46:06.459Z,42.98
2023-04-14T07:48:34.660Z,41.26
2023-04-14T07:51:01.547Z,38.19
2023-04-14T07:53:27.932Z,36.00
2023-04-14T07:55:54.274Z,36.68
2023-04-14T07:58:21.609Z,35.12
2023-04-14T08:00:50.351Z,32.85
2023-04-14T08:03:17.213Z,34.33
2023-04-14T08:05:43.819Z,36.66
2023-04-14T08:08:10.294Z,34.21
2023-04-14T08:10:41.427Z,35.30
2023-04-14T08:13:07.721Z,33.23
2023-04-14T08:15:34.017Z,33.69
2023-04-14T08:18:00.399Z,34.12
2023-04-14T08:20:26.878Z,33.81
2023-04-14T08:22:53.256Z,33.54
2023-04-14T08:25:19.571Z,33.98
2023-04-14T08:27:45.928Z,34.60
2023-04-14T08:30:12.637Z,32.42
2023-04-14T08:32:39.076Z,33.61
2023-04-14T08:35:39.240Z,32.02
2023-04-14T08:37:51.980Z,31.05
2023-04-14T08:40:21.567Z,29.72
2023-04-14T08:42:47.868Z,30.76
2023-04-14T08:45:14.455Z,32.66
2023-04-14T08:47:44.594Z,32.72
2023-04-14T08:50:15.412Z,32.35
2023-04-14T08:52:43.129Z,30.79
2023-04-14T08:55:11.192Z,28.22
2023-04-14T08:57:38.337Z,29.36
2023-04-14T09:00:05.815Z,30.04
2023-04-14T09:02:33.585Z,32.95
2023-04-14T09:05:00.971Z,33.70
2023-04-14T09:07:28.923Z,31.40
2023-04-14T09:09:57.580Z,31.96
2023-04-14T09:12:26.361Z,33.16
2023-04-14T09:14:53.966Z,33.56
2023-04-14T09:17:20.541Z,35.55
2023-04-14T09:20:39.709Z,36.26
2023-04-14T09:22:34.422Z,35.89
2023-04-14T09:25:01.177Z,35.31
2023-04-14T09:27:28.589Z,34.16
2023-04-14T09:29:57.414Z,34.79
2023-04-14T09:32:23.940Z,35.67
2023-04-14T09:34:55.648Z,32.57
2023-04-14T09:37:24.085Z,32.52
2023-04-14T09:39:51.744Z,32.52
2023-04-14T09:42:18.693Z,31.60
2023-04-14T09:44:58.872Z,31.47
2023-04-14T09:47:26.156Z,32.82
2023-04-14T09:50:11.016Z,34.11
2023-04-14T09:52:40.150Z,35.60
2023-04-14T09:55:14.223Z,35.95
2023-04-14T09:57:47.294Z,36.10
2023-04-14T10:00:21.437Z,35.54
2023-04-14T10:02:55.893Z,33.49
2023-04-14T10:05:26.962Z,33.87
2023-04-14T10:07:53.465Z,34.90
2023-04-14T10:10:19.741Z,35.49
2023-04-14T10:12:46.545Z,36.97
2023-04-14T10:15:14.659Z,38.55
2023-04-14T10:17:42.371Z,38.56
2023-04-14T10:20:10.261Z,38.88
2023-04-14T10:22:39.674Z,40.91
2023-04-14T10:25:08.618Z,41.30
2023-04-14T10:27:35.723Z,42.42
2023-04-14T10:30:02.355Z,41.17
2023-04-14T10:32:31.200Z,42.18
2023-04-14T10:35:05.478Z,43.98
2023-04-14T10:37:35.630Z,42.85
2023-04-14T10:40:05.394Z,40.65
2023-04-14T10:42:54.342Z,40.34
2023-04-14T10:45:21.602Z,37.82
2023-04-14T10:47:49.886Z,37.26
2023-04-14T10:50:18.422Z,35.04
2023-04-14T10:52:58.856Z,35.40
2023-04-14T10:55:27.887Z,36.11
2023-04-14T10:58:05.585Z,35.80
2023-04-14T11:00:37.308Z,38.09
2023-04-14T11:03:07.718Z,40.51
2023-04-14T11:05:35.550Z,42.63
2023-04-14T11:08:13.327Z,41.43
2023-04-14T11:10:39.659Z,41.55
2023-04-14T11:13:10.960Z,40.36
2023-04-14T11:16:02.471Z,40.19
2023-04-14T11:18:37.408Z,40.92
2023-04-14T11:21:13.335Z,43.76
2023-04-14T11:23:40.819Z,43.69
2023-04-14T11:26:08.748Z,44.48
2023-04-14T11:28:36.976Z,44.75
2023-04-14T11:31:05.108Z,44.65
2023-04-14T11:33:39.707Z,37.72
2023-04-14T11:36:07.507Z,36.04
2023-04-14T11:38:40.296Z,36.37
2023-04-14T11:41:06.935Z,34.46
2023-04-14T11:43:33.435Z,35.36
2023-04-14T11:46:00.652Z,34.75
2023-04-14T11:48:28.885Z,34.99
2023-04-14T11:51:01.013Z,33.46
2023-04-14T11:53:27.557Z,34.61
2023-04-14T11:55:54.180Z,36.22
2023-04-14T11:58:22.566Z,34.90
2023-04-14T12:00:49.854Z,32.48
2023-04-14T12:03:17.073Z,32.06
2023-04-14T12:05:43.937Z,33.65
2023-04-14T12:08:12.214Z,31.38
2023-04-14T12:10:42.187Z,31.94
2023-04-14T12:13:10.387Z,30.53
2023-04-14T12:15:41.373Z,30.34
2023-04-14T12:18:14.723Z,29.33
2023-04-14T12:21:02.225Z,31.18
2023-04-14T12:23:28.718Z,29.11
2023-04-14T12:25:55.262Z,29.17
2023-04-14T12:28:27.231Z,29.44
2023-04-14T12:31:00.549Z,29.81
2023-04-14T12:33:28.549Z,29.94
2023-04-14T12:36:03.229Z,32.48
2023-04-14T12:38:29.835Z,33.84
2023-04-14T12:40:56.570Z,34.85
2023-04-14T12:43:33.507Z,33.72
2023-04-14T12:46:00.275Z,36.11
2023-04-14T12:48:44.401Z,36.07
2023-04-14T12:51:12.852Z,35.40
2023-04-14T12:53:40.171Z,36.32
2023-04-14T12:56:11.484Z,34.30
2023-04-14T12:58:39.814Z,32.95
2023-04-14T13:01:10.267Z,32.68
2023-04-14T13:03:51.469Z,30.35
2023-04-14T13:06:20.051Z,29.84
2023-04-14T13:08:47.696Z,30.15
2023-04-14T13:11:14.938Z,28.68
2023-04-14T13:13:41.623Z,29.24
2023-04-14T13:16:13.978Z,26.94
2023-04-14T13:18:43.468Z,29.27
2023-04-14T13:21:10.539Z,27.98
2023-04-14T13:23:37.176Z,28.33
2023-04-14T13:26:04.023Z,27.23
2023-04-14T13:28:30.624Z,26.69
2023-04-14T13:30:57.724Z,28.15
2023-04-14T13:33:25.631Z,27.19
2023-04-14T13:35:53.387Z,28.10
2023-04-14T13:38:20.069Z,26.69
2023-04-14T13:40:48.078Z,28.29
2023-04-14T13:43:16.685Z,28.52
2023-04-14T13:45:43.310Z,28.92
2023-04-14T13:48:09.771Z,30.30
2023-04-14T13:50:36.246Z,33.01
2023-04-14T13:53:03.101Z,32.60
2023-04-14T13:55:29.410Z,32.85
2023-04-14T13:57:55.746Z,33.70
2023-04-14T14:00:22.052Z,33.64
2023-04-14T14:02:48.724Z,33.46
2023-04-14T14:05:15.613Z,33.79
2023-04-14T14:07:42.039Z,32.36
2023-04-14T14:10:10.423Z,32.65
2023-04-14T14:12:36.866Z,32.36
2023-04-14T14:15:03.814Z,31.15
2023-04-14T14:17:30.284Z,29.98
2023-04-14T14:19:56.631Z,30.25
2023-04-14T14:22:22.828Z,31.33
2023-04-14T14:24:49.207Z,32.52
2023-04-14T14:27:16.222Z,31.83
2023-04-14T14:29:42.522Z,33.56
2023-04-14T14:32:09.283Z,34.26
2023-04-14T14:34:35.672Z,30.48
2023-04-14T14:37:01.945Z,29.14
2023-04-14T14:39:30.404Z,28.47
2023-04-14T14:41:56.788Z,27.84
2023-04-14T14:44:23.055Z,27.88
2023-04-14T14:46:52.468Z,28.28
2023-04-14T14:49:19.477Z,29.30
2023-04-14T14:51:46.071Z,28.05
2023-04-14T14:54:12.698Z,29.23
2023-04-14T14:56:39.189Z,27.82
2023-04-14T14:59:05.787Z,27.43
2023-04-14T15:01:33.130Z,26.03
2023-04-14T15:03:59.678Z,25.93
2023-04-14T15:06:27.508Z,26.86
2023-04-14T15:08:53.856Z,25.16
2023-04-14T15:11:21.185Z,26.62
2023-04-14T15:13:47.613Z,27.51
2023-04-14T15:16:13.915Z,26.56
2023-04-14T15:18:40.315Z,27.50
2023-04-14T15:21:06.897Z,28.56
2023-04-14T15:23:36.945Z,28.20
2023-04-14T15:26:03.404Z,27.57
2023-04-14T15:28:30.512Z,28.06
2023-04-14T15:30:57.117Z,27.16
2023-04-14T15:33:23.840Z,26.39
2023-04-14T15:35:50.942Z,26.24
2023-04-14T15:38:17.249Z,26.05
2023-04-14T15:40:43.787Z,26.62
2023-04-14T15:43:10.991Z,27.29
2023-04-14T15:45:37.343Z,26.60
2023-04-14T15:48:03.791Z,25.09
2023-04-14T15:50:30.158Z,25.04
2023-04-14T15:52:57.543Z,24.57
2023-04-14T15:55:23.934Z,24.50
2023-04-14T15:57:51.024Z,24.70
2023-04-14T16:00:17.657Z,24.97
2023-04-14T16:02:46.275Z,24.62
2023-04-14T16:05:12.986Z,25.51
2023-04-14T16:07:39.801Z,25.68
2023-04-14T16:10:06.970Z,25.01
2023-04-14T16:12:35.152Z,23.42
2023-04-14T16:15:01.620Z,25.56
2023-04-14T16:17:27.992Z,24.92
2023-04-14T16:19:54.311Z,23.95
2023-04-14T16:22:20.522Z,24.13
2023-04-14T16:24:46.839Z,23.57
2023-04-14T16:27:13.152Z,24.10
2023-04-14T16:29:39.608Z,25.06
2023-04-14T16:32:05.938Z,25.05
2023-04-14T16:34:32.232Z,25.40
2023-04-14T16:36:58.577Z,25.00
2023-04-14T16:39:24.999Z,25.50
2023-04-14T16:41:51.414Z,24.84
2023-04-14T16:44:17.628Z,26.42
2023-04-14T16:46:44.027Z,26.19
2023-04-14T16:49:10.858Z,26.85
2023-04-14T16:51:38.043Z,26.93
2023-04-14T16:54:04.729Z,26.31
2023-04-14T16:56:31.215Z,27.59
2023-04-14T16:58:57.725Z,26.62
2023-04-14T17:01:26.308Z,25.73
2023-04-14T17:03:53.405Z,27.10
2023-04-14T17:06:20.048Z,27.00
2023-04-14T17:08:46.286Z,27.49
2023-04-14T17:11:12.818Z,26.57
2023-04-14T17:13:39.644Z,27.00
2023-04-14T17:16:09.145Z,26.83
2023-04-14T17:18:36.458Z,27.47
2023-04-14T17:21:03.236Z,28.74
2023-04-14T17:23:29.521Z,29.45
2023-04-14T17:25:58.568Z,28.80
2023-04-14T17:28:26.605Z,28.21
2023-04-14T17:30:52.975Z,28.67
2023-04-14T17:33:20.685Z,28.05
2023-04-14T17:35:47.145Z,28.71
2023-04-14T17:38:13.438Z,29.19
2023-04-14T17:40:39.741Z,27.81
2023-04-14T17:43:06.024Z,28.04
2023-04-14T17:45:33.590Z,28.74
2023-04-14T17:47:59.959Z,28.43
2023-04-14T17:50:26.303Z,29.40
2023-04-14T17:52:53.093Z,29.39
2023-04-14T17:55:20.159Z,30.85
2023-04-14T17:57:46.684Z,29.91
2023-04-14T18:00:13.167Z,29.66
2023-04-14T18:02:41.006Z,30.73
2023-04-14T18:05:08.966Z,30.49
2023-04-14T18:07:36.847Z,30.61
2023-04-14T18:10:03.560Z,30.48
2023-04-14T18:12:30.902Z,33.65
2023-04-14T18:14:57.254Z,32.32
2023-04-14T18:17:23.667Z,31.55
2023-04-14T18:19:50.158Z,32.64
2023-04-14T18:22:17.493Z,33.12
2023-04-14T18:29:48.762Z,35.31
2023-04-14T18:32:15.370Z,35.13
2023-04-14T18:34:41.968Z,35.83
2023-04-14T18:37:08.293Z,36.30
2023-04-14T18:39:36.490Z,36.36
2023-04-14T18:42:03.564Z,37.23
2023-04-14T18:44:30.111Z,37.08
2023-04-14T18:46:56.798Z,37.89
2023-04-14T18:49:23.448Z,36.60
2023-04-14T18:51:49.726Z,38.16
2023-04-14T18:54:16.174Z,38.03
2023-04-14T18:56:43.118Z,38.86
2023-04-14T18:59:09.442Z,39.77
2023-04-14T19:01:36.226Z,40.09
2023-04-14T19:04:03.068Z,41.55
2023-04-14T19:06:29.531Z,42.13
2023-04-14T19:08:55.992Z,43.70
2023-04-14T19:11:22.330Z,45.16
2023-04-14T19:13:48.665Z,45.52
2023-04-14T19:16:15.035Z,45.93
2023-04-14T19:18:41.677Z,46.75
2023-04-14T19:21:08.999Z,46.68
2023-04-14T19:23:36.074Z,46.90
2023-04-14T19:26:03.096Z,46.72
2023-04-14T19:28:29.438Z,46.63
2023-04-14T19:30:55.791Z,47.72
2023-04-14T19:33:22.295Z,46.96
2023-04-14T19:35:49.015Z,48.21
2023-04-14T19:38:15.392Z,48.59
2023-04-14T19:40:48.508Z,49.21
2023-04-14T19:43:18.479Z,50.36
2023-04-14T19:45:55.728Z,51.09
2023-04-14T19:48:24.252Z,50.48
2023-04-14T19:50:54.117Z,50.54
2023-04-14T19:53:21.584Z,50.27
2023-04-14T19:55:53.341Z,52.30
2023-04-14T19:58:21.495Z,52.17
2023-04-14T20:00:50.886Z,51.44
2023-04-14T20:03:17.814Z,52.43
2023-04-14T20:05:44.455Z,52.32
2023-04-14T20:08:10.794Z,53.05
2023-04-14T20:10:37.699Z,52.79
2023-04-14T20:13:04.058Z,51.46
2023-04-14T20:15:30.350Z,52.84
2023-04-14T20:17:57.133Z,53.97
2023-04-14T20:20:23.447Z,53.28
2023-04-14T20:22:49.927Z,55.21
2023-04-14T20:25:17.753Z,54.60
2023-04-14T20:27:44.023Z,54.08
2023-04-14T20:30:12.360Z,55.27
2023-04-14T20:32:38.723Z,54.46
2023-04-14T20:35:05.563Z,53.36
2023-04-14T20:37:32.044Z,52.45
2023-04-14T20:39:58.318Z,52.03
2023-04-14T20:42:25.202Z,52.56
2023-04-14T20:44:51.484Z,53.81
2023-04-14T20:47:17.775Z,53.34
2023-04-14T20:49:44.832Z,54.64
2023-04-14T20:52:11.248Z,55.90
2023-04-14T20:54:37.538Z,55.56
2023-04-14T20:57:05.374Z,55.67
2023-04-14T20:59:32.591Z,56.03
2023-04-14T21:01:59.000Z,57.28
2023-04-14T21:04:25.871Z,56.46
2023-04-14T21:06:52.753Z,56.36
2023-04-14T21:09:21.107Z,56.73
2023-04-14T21:11:47.723Z,57.41
2023-04-14T21:15:41.609Z,57.51
2023-04-14T21:17:20.211Z,57.83
2023-04-14T21:19:46.971Z,56.70
2023-04-14T21:22:13.304Z,56.50
2023-04-14T21:24:39.655Z,56.50
2023-04-14T21:27:05.980Z,57.53
2023-04-14T21:29:32.446Z,56.75
2023-04-14T21:31:58.853Z,55.62
2023-04-14T21:34:27.323Z,56.01
2023-04-14T21:36:53.921Z,55.93
2023-04-14T21:39:21.704Z,55.27
2023-04-14T21:41:48.429Z,56.38
2023-04-14T21:44:15.602Z,57.33
2023-04-14T21:46:42.068Z,59.10
2023-04-14T21:49:08.371Z,58.95
2023-04-14T21:51:34.659Z,60.75
2023-04-14T21:54:01.263Z,60.58
2023-04-14T21:56:27.852Z,60.51
2023-04-14T21:58:54.368Z,61.33
2023-04-14T22:01:20.805Z,60.65
2023-04-14T22:03:47.284Z,60.64
2023-04-14T22:06:13.754Z,60.43
2023-04-14T22:08:40.781Z,60.62
2023-04-14T22:11:07.301Z,60.73
2023-04-14T22:13:33.707Z,61.18
2023-04-14T22:16:00.366Z,60.34
2023-04-14T22:18:27.557Z,60.67
2023-04-14T22:20:54.287Z,60.90
2023-04-14T22:23:20.886Z,60.63
2023-04-14T22:25:47.844Z,60.64
2023-04-14T22:28:14.516Z,60.67
2023-04-14T22:30:40.820Z,61.72
2023-04-14T22:33:07.171Z,60.98
2023-04-14T22:35:33.461Z,61.29
2023-04-14T22:38:00.056Z,62.44
2023-04-14T22:40:26.427Z,61.88
2023-04-14T22:42:52.716Z,62.92
2023-04-14T22:45:18.984Z,63.65
2023-04-14T22:47:45.530Z,63.27
2023-04-14T22:50:11.899Z,63.40
2023-04-14T22:52:38.203Z,63.40
2023-04-14T22:55:04.806Z,63.44
2023-04-14T22:57:31.110Z,64.12
2023-04-14T22:59:57.434Z,64.72
2023-04-14T23:02:23.933Z,64.12
2023-04-14T23:04:50.644Z,64.19
2023-04-14T23:07:17.082Z,63.62
2023-04-14T23:09:43.364Z,65.33
2023-04-14T23:12:10.298Z,64.98
2023-04-14T23:14:36.704Z,65.50
2023-04-14T23:17:02.971Z,65.70
2023-04-14T23:19:29.227Z,65.63
2023-04-14T23:21:55.520Z,66.47
2023-04-14T23:24:23.405Z,65.55
2023-04-14T23:26:49.766Z,64.45
2023-04-14T23:29:17.552Z,64.84
2023-04-14T23:31:43.921Z,65.22
2023-04-14T23:34:10.908Z,65.58
2023-04-14T23:36:37.588Z,66.32
2023-04-14T23:39:04.082Z,67.35
2023-04-14T23:41:30.730Z,67.55
2023-04-14T23:43:57.003Z,67.28
2023-04-14T23:46:23.294Z,67.09
2023-04-14T23:48:49.696Z,67.66
2023-04-14T23:51:20.138Z,67.74
2023-04-14T23:53:47.355Z,68.21
2023-04-14T23:56:13.650Z,68.73
2023-04-14T23:58:39.940Z,67.30
